createdAt,value
2016-08-10T00:00:46.099Z,86.22
2016-08-10T00:01:47.080Z,85.84
2016-08-10T00:02:47.400Z,85.08
2016-08-10T00:03:46.313Z,84.98
2016-08-10T00:04:47.507Z,85.55
2016-08-10T00:05:46.853Z,85.08
2016-08-10T00:06:46.265Z,85.17
2016-08-10T00:07:46.440Z,85.46
2016-08-10T00:08:46.477Z,86.88
2016-08-10T00:09:46.277Z,87.89
2016-08-10T00:10:46.104Z,87.98
2016-08-10T00:11:47.448Z,89.03
2016-08-10T00:12:47.527Z,89.41
2016-08-10T00:13:47.046Z,89.7
2016-08-10T00:14:46.530Z,89.61
2016-08-10T00:15:46.993Z,88.75
2016-08-10T00:16:47.618Z,88.75
2016-08-10T00:17:47.576Z,88.65
2016-08-10T00:18:47.545Z,88.75
2016-08-10T00:20:47.117Z,88.75
2016-08-10T00:21:47.456Z,89.32
2016-08-10T00:22:46.789Z,89.7
2016-08-10T00:23:47.249Z,89.61
2016-08-10T00:24:46.842Z,89.32
2016-08-10T00:25:47.954Z,88.89
2016-08-10T00:26:47.105Z,89.17
2016-08-10T00:27:46.771Z,89.7
2016-08-10T00:28:46.982Z,89.7
2016-08-10T00:29:46.755Z,89.51
2016-08-10T00:30:47.410Z,88.79
2016-08-10T00:31:46.837Z,88.12
2016-08-10T00:32:47.976Z,87.46
2016-08-10T00:33:47.444Z,87.07
2016-08-10T00:34:47.339Z,87.36
2016-08-10T00:35:46.711Z,87.27
2016-08-10T00:36:46.980Z,87.74
2016-08-10T00:37:47.511Z,87.74
2016-08-10T00:38:47.172Z,87.65
2016-08-10T00:39:47.796Z,87.93
2016-08-10T00:40:47.306Z,89.46
2016-08-10T00:41:46.941Z,89.84
2016-08-10T00:42:47.128Z,89.84
2016-08-10T00:43:48.146Z,89.07
2016-08-10T00:44:46.937Z,88.22
2016-08-10T00:45:46.881Z,87.79
2016-08-10T00:46:47.019Z,87.21
2016-08-10T00:47:47.736Z,88.36
2016-08-10T00:48:47.209Z,89.07
2016-08-10T00:49:47.833Z,89.17
2016-08-10T00:50:48.612Z,88.98
2016-08-10T00:51:47.188Z,89.46
2016-08-10T00:52:47.424Z,89.75
2016-08-10T00:53:47.624Z,89.46
2016-08-10T00:54:47.150Z,89.55
2016-08-10T00:55:48.013Z,89.55
2016-08-10T00:56:48.192Z,89.46
2016-08-10T00:57:48.525Z,90.22
2016-08-10T00:58:48.420Z,90.79
2016-08-10T00:59:48.072Z,91.17
2016-08-10T01:00:47.801Z,90.41
2016-08-10T01:01:48.574Z,89.75
2016-08-10T01:02:47.612Z,89.17
2016-08-10T01:03:48.955Z,89.22
2016-08-10T01:04:49.235Z,88.93
2016-08-10T01:05:47.511Z,88.55
2016-08-10T01:06:48.184Z,88.74
2016-08-10T01:07:47.520Z,88.64
2016-08-10T01:08:48.093Z,90.08
2016-08-10T01:09:48.181Z,89.84
2016-08-10T01:10:48.608Z,89.07
2016-08-10T01:11:48.900Z,88.84
2016-08-10T01:12:48.475Z,88.45
2016-08-10T01:13:47.958Z,88.36
2016-08-10T01:14:48.730Z,88.26
2016-08-10T01:15:49.009Z,89.03
2016-08-10T01:16:47.307Z,88.36
2016-08-10T01:17:48.787Z,88.84
2016-08-10T01:18:47.830Z,89.6
2016-08-10T01:19:48.231Z,89.65
2016-08-10T01:20:47.918Z,89.94
2016-08-10T01:21:48.347Z,90.22
2016-08-10T01:22:48.804Z,89.65
2016-08-10T01:23:48.742Z,89.55
2016-08-10T01:24:49.293Z,89.75
2016-08-10T01:25:48.801Z,89.65
2016-08-10T01:26:48.294Z,90.22
2016-08-10T01:27:48.144Z,90.12
2016-08-10T01:28:48.123Z,89.65
2016-08-10T01:29:48.875Z,89.69
2016-08-10T01:30:48.265Z,90.03
2016-08-10T01:31:49.450Z,89.75
2016-08-10T01:32:48.816Z,89.22
2016-08-10T01:33:48.455Z,89.84
2016-08-10T01:34:48.623Z,89.75
2016-08-10T01:35:48.943Z,89.84
2016-08-10T01:36:48.604Z,90.79
2016-08-10T01:38:49.227Z,91.08
2016-08-10T01:39:48.403Z,90.79
2016-08-10T01:40:48.715Z,90.6
2016-08-10T01:41:49.813Z,90.22
2016-08-10T01:42:49.349Z,90.36
2016-08-10T01:43:48.605Z,90.55
2016-08-10T01:44:49.137Z,89.5
2016-08-10T01:45:48.708Z,89.4
2016-08-10T01:46:48.300Z,89.12
2016-08-10T01:47:49.869Z,88.74
2016-08-10T01:48:49.054Z,89.31
2016-08-10T01:49:48.708Z,89.31
2016-08-10T01:50:49.903Z,89.03
2016-08-10T01:51:49.473Z,89.22
2016-08-10T01:53:49.040Z,89.98
2016-08-10T01:54:48.587Z,89.84
2016-08-10T01:55:49.234Z,89.75
2016-08-10T01:56:50.140Z,89.6
2016-08-10T01:57:48.693Z,89.98
2016-08-10T01:58:48.396Z,90.08
2016-08-10T01:59:48.735Z,90.79
2016-08-10T02:00:49.485Z,90.79
2016-08-10T02:01:50.078Z,91.08
2016-08-10T02:02:49.637Z,90.79
2016-08-10T02:03:49.652Z,90.45
2016-08-10T02:04:49.493Z,89.98
2016-08-10T02:05:48.948Z,89.69
2016-08-10T02:06:49.671Z,89.5
2016-08-10T02:07:49.665Z,89.69
2016-08-10T02:08:48.916Z,91.22
2016-08-10T02:09:48.820Z,91.17
2016-08-10T02:10:49.395Z,91.55
2016-08-10T02:11:49.051Z,91.84
2016-08-10T02:12:48.709Z,92.41
2016-08-10T02:13:48.616Z,92.32
2016-08-10T02:14:50.154Z,92.69
2016-08-10T02:15:49.829Z,92.98
2016-08-10T02:16:50.017Z,92.5
2016-08-10T02:17:49.911Z,92.22
2016-08-10T02:18:50.006Z,92.13
2016-08-10T02:19:49.424Z,91.27
2016-08-10T02:20:49.996Z,91.36
2016-08-10T02:21:49.819Z,91.36
2016-08-10T02:22:49.383Z,90.93
2016-08-10T02:23:50.146Z,90.55
2016-08-10T02:24:49.127Z,89.5
2016-08-10T02:25:50.005Z,90.26
2016-08-10T02:26:50.140Z,89.98
2016-08-10T02:27:49.005Z,90.26
2016-08-10T02:28:49.123Z,90.45
2016-08-10T02:29:49.244Z,90.55
2016-08-10T02:30:49.463Z,89.89
2016-08-10T02:31:49.329Z,89.79
2016-08-10T02:32:49.495Z,90.08
2016-08-10T02:33:51.078Z,89.69
2016-08-10T02:34:50.626Z,90.55
2016-08-10T02:35:49.867Z,90.93
2016-08-10T02:36:49.452Z,91.65
2016-08-10T02:37:50.325Z,91.55
2016-08-10T02:38:49.721Z,91.65
2016-08-10T02:39:50.287Z,92.69
2016-08-10T02:40:50.833Z,92.22
2016-08-10T02:41:49.715Z,91.27
2016-08-10T02:42:49.963Z,92.13
2016-08-10T02:43:50.237Z,92.69
2016-08-10T02:44:49.640Z,93.08
2016-08-10T02:45:49.696Z,92.98
2016-08-10T02:46:51.489Z,93.37
2016-08-10T02:47:49.729Z,92.98
2016-08-10T02:48:49.789Z,92.27
2016-08-10T02:49:49.713Z,91.41
2016-08-10T02:50:50.479Z,91.22
2016-08-10T02:51:56.612Z,91.31
2016-08-10T02:52:50.002Z,91.03
2016-08-10T02:53:50.952Z,91.6
2016-08-10T02:54:49.746Z,91.41
2016-08-10T02:55:49.659Z,91.13
2016-08-10T02:56:50.245Z,91.22
2016-08-10T02:57:50.570Z,92.65
2016-08-10T02:58:49.889Z,92.69
2016-08-10T02:59:49.691Z,92.5
2016-08-10T03:00:49.809Z,92.08
2016-08-10T03:01:49.882Z,91.88
2016-08-10T03:02:49.704Z,92.08
2016-08-10T03:03:50.140Z,92.17
2016-08-10T03:04:50.631Z,92.17
2016-08-10T03:05:51.535Z,93.12
2016-08-10T03:06:50.521Z,93.12
2016-08-10T03:07:49.752Z,92.79
2016-08-10T03:08:50.449Z,92.93
2016-08-10T03:09:50.059Z,92.27
2016-08-10T03:10:50.909Z,92.74
2016-08-10T03:11:50.081Z,92.93
2016-08-10T03:12:50.084Z,92.93
2016-08-10T03:13:51.079Z,93.03
2016-08-10T03:14:51.247Z,92.36
2016-08-10T03:15:50.543Z,91.88
2016-08-10T03:16:50.995Z,91.6
2016-08-10T03:17:51.925Z,91.6
2016-08-10T03:18:51.219Z,91.41
2016-08-10T03:19:51.993Z,91.03
2016-08-10T03:20:50.493Z,90.64
2016-08-10T03:21:50.167Z,90.64
2016-08-10T03:22:50.965Z,90.93
2016-08-10T03:23:51.091Z,90.64
2016-08-10T03:24:51.215Z,90.45
2016-08-10T03:25:51.124Z,91.13
2016-08-10T03:26:50.889Z,92.74
2016-08-10T03:27:50.372Z,92.84
2016-08-10T03:28:51.695Z,92.93
2016-08-10T03:29:51.101Z,93.6
2016-08-10T03:30:51.071Z,93.51
2016-08-10T03:31:51.187Z,93.32
2016-08-10T03:32:51.164Z,93.51
2016-08-10T03:33:50.675Z,92.93
2016-08-10T03:34:50.845Z,92.65
2016-08-10T03:35:50.476Z,92.84
2016-08-10T03:36:51.410Z,92.93
2016-08-10T03:37:50.927Z,92.65
2016-08-10T03:38:51.665Z,93.12
2016-08-10T03:39:51.204Z,92.84
2016-08-10T03:40:51.365Z,93.22
2016-08-10T03:41:51.272Z,92.84
2016-08-10T03:42:51.770Z,91.98
2016-08-10T03:43:50.994Z,91.31
2016-08-10T03:44:51.502Z,92.08
2016-08-10T03:45:51.353Z,92.74
2016-08-10T03:46:51.087Z,93.22
2016-08-10T03:47:52.048Z,93.08
2016-08-10T03:48:51.651Z,93.7
2016-08-10T03:49:51.444Z,93.51
2016-08-10T03:50:51.084Z,93.12
2016-08-10T03:51:52.108Z,91.98
2016-08-10T03:52:51.862Z,91.69
2016-08-10T03:53:51.427Z,91.98
2016-08-10T03:54:51.633Z,91.98
2016-08-10T03:55:51.257Z,92.36
2016-08-10T03:56:51.250Z,93.12
2016-08-10T03:57:51.512Z,92.69
2016-08-10T03:58:51.578Z,93.12
2016-08-10T03:59:51.194Z,92.93
2016-08-10T04:00:51.452Z,92.08
2016-08-10T04:01:52.158Z,91.6
2016-08-10T04:02:51.508Z,91.69
2016-08-10T04:03:52.117Z,91.98
2016-08-10T04:04:51.436Z,91.98
2016-08-10T04:05:52.116Z,92.36
2016-08-10T04:06:51.268Z,92.46
2016-08-10T04:07:52.088Z,92.74
2016-08-10T04:08:52.843Z,92.74
2016-08-10T04:09:51.054Z,92.08
2016-08-10T04:10:51.640Z,91.69
2016-08-10T04:11:51.890Z,91.98
2016-08-10T04:12:51.353Z,92.93
2016-08-10T04:13:51.907Z,93.12
2016-08-10T04:14:51.821Z,93.37
2016-08-10T04:15:51.447Z,92.93
2016-08-10T04:16:52.375Z,92.55
2016-08-10T04:17:51.984Z,91.98
2016-08-10T04:18:52.333Z,91.22
2016-08-10T04:19:51.415Z,91.5
2016-08-10T04:20:52.436Z,91.22
2016-08-10T04:21:51.729Z,90.08
2016-08-10T04:22:52.726Z,90.84
2016-08-10T04:23:52.447Z,90.74
2016-08-10T04:24:52.506Z,91.03
2016-08-10T04:25:51.852Z,92.08
2016-08-10T04:26:51.638Z,92.08
2016-08-10T04:27:52.712Z,91.5
2016-08-10T04:28:51.728Z,91.41
2016-08-10T04:29:52.539Z,91.13
2016-08-10T04:30:52.146Z,90.93
2016-08-10T04:31:51.919Z,90.84
2016-08-10T04:32:51.709Z,91.98
2016-08-10T04:33:52.226Z,92.55
2016-08-10T04:34:52.592Z,92.93
2016-08-10T04:35:52.092Z,92.55
2016-08-10T04:36:52.068Z,91.98
2016-08-10T04:37:52.602Z,91.22
2016-08-10T04:38:52.250Z,91.22
2016-08-10T04:39:53.163Z,91.13
2016-08-10T04:40:52.435Z,91.31
2016-08-10T04:41:52.896Z,90.79
2016-08-10T04:42:53.265Z,90.26
2016-08-10T04:43:52.925Z,91.22
2016-08-10T04:44:52.327Z,92.08
2016-08-10T04:45:52.512Z,92.08
2016-08-10T04:46:53.605Z,93.12
2016-08-10T04:47:52.663Z,93.74
2016-08-10T04:48:52.192Z,94.27
2016-08-10T04:49:53.699Z,94.03
2016-08-10T04:50:53.425Z,93.93
2016-08-10T04:51:52.627Z,94.51
2016-08-10T04:52:52.487Z,94.51
2016-08-10T04:53:52.513Z,94.46
2016-08-10T04:54:52.964Z,93.65
2016-08-10T04:55:52.429Z,92.84
2016-08-10T04:56:52.978Z,93.12
2016-08-10T04:57:53.409Z,93.03
2016-08-10T04:58:52.557Z,92.74
2016-08-10T04:59:52.254Z,91.98
2016-08-10T05:00:52.749Z,91.88
2016-08-10T05:01:52.576Z,91.41
2016-08-10T05:02:53.364Z,91.5
2016-08-10T05:03:53.662Z,90.5
2016-08-10T05:04:52.342Z,90.31
2016-08-10T05:05:52.497Z,90.59
2016-08-10T05:06:52.636Z,91.07
2016-08-10T05:07:53.712Z,91.36
2016-08-10T05:08:52.958Z,92.12
2016-08-10T05:09:53.207Z,91.88
2016-08-10T05:10:52.655Z,91.07
2016-08-10T05:11:52.384Z,91.36
2016-08-10T05:12:53.249Z,91.07
2016-08-10T05:13:53.215Z,91.07
2016-08-10T05:14:53.440Z,90.79
2016-08-10T05:15:53.297Z,91.17
2016-08-10T05:16:52.445Z,91.07
2016-08-10T05:17:52.877Z,90.59
2016-08-10T05:18:52.670Z,91.36
2016-08-10T05:19:55.004Z,91.07
2016-08-10T05:20:52.785Z,90.31
2016-08-10T05:21:52.824Z,90.5
2016-08-10T05:22:53.088Z,90.79
2016-08-10T05:23:53.512Z,90.5
2016-08-10T05:24:53.260Z,90.03
2016-08-10T05:25:53.144Z,90.03
2016-08-10T05:26:53.064Z,91.27
2016-08-10T05:27:53.109Z,90.88
2016-08-10T05:28:53.435Z,91.27
2016-08-10T05:29:53.266Z,90.98
2016-08-10T05:30:53.509Z,91.55
2016-08-10T05:31:53.265Z,92.12
2016-08-10T05:32:54.355Z,92.03
2016-08-10T05:33:53.232Z,92.5
2016-08-10T05:34:53.370Z,90.98
2016-08-10T05:35:54.292Z,91.17
2016-08-10T05:36:54.159Z,90.83
2016-08-10T05:37:53.667Z,90.64
2016-08-10T05:39:54.163Z,89.31
2016-08-10T05:40:54.002Z,89.02
2016-08-10T05:41:53.176Z,90.07
2016-08-10T05:42:53.197Z,89.88
2016-08-10T05:43:54.173Z,89.88
2016-08-10T05:44:53.489Z,89.88
2016-08-10T05:45:53.538Z,89.31
2016-08-10T05:46:54.851Z,89.69
2016-08-10T05:47:53.440Z,90.5
2016-08-10T05:48:54.094Z,89.83
2016-08-10T05:49:54.754Z,89.21
2016-08-10T05:50:54.280Z,87.87
2016-08-10T05:51:53.852Z,86.54
2016-08-10T05:52:54.729Z,86.35
2016-08-10T05:54:53.825Z,86.49
2016-08-10T05:55:54.285Z,85.97
2016-08-10T05:56:53.754Z,85.97
2016-08-10T05:57:54.980Z,85.39
2016-08-10T05:58:54.342Z,84.82
2016-08-10T05:59:53.823Z,84.72
2016-08-10T06:00:54.686Z,85.11
2016-08-10T06:01:54.173Z,85.3
2016-08-10T06:02:54.070Z,85.39
2016-08-10T06:03:53.800Z,84.63
2016-08-10T06:04:53.782Z,84.34
2016-08-10T06:05:54.440Z,84.25
2016-08-10T06:06:55.332Z,84.44
2016-08-10T06:07:54.464Z,84.49
2016-08-10T06:09:54.431Z,84.82
2016-08-10T06:10:54.669Z,85.87
2016-08-10T06:11:54.648Z,85.87
2016-08-10T06:12:54.256Z,87.35
2016-08-10T06:13:54.073Z,87.64
2016-08-10T06:14:54.843Z,87.54
2016-08-10T06:15:54.392Z,88.21
2016-08-10T06:16:54.947Z,88.59
2016-08-10T06:17:55.481Z,87.74
2016-08-10T06:18:54.289Z,89.07
2016-08-10T06:19:54.285Z,89.64
2016-08-10T06:20:54.958Z,90.41
2016-08-10T06:21:54.586Z,90.98
2016-08-10T06:22:55.168Z,90.31
2016-08-10T06:23:54.615Z,90.59
2016-08-10T06:24:55.338Z,90.79
2016-08-10T06:25:55.114Z,90.79
2016-08-10T06:26:54.617Z,90.93
2016-08-10T06:27:54.719Z,90.74
2016-08-10T06:28:54.420Z,90.41
2016-08-10T06:29:55.499Z,90.98
2016-08-10T06:30:54.129Z,89.83
2016-08-10T06:31:55.070Z,89.79
2016-08-10T06:32:55.054Z,89.64
2016-08-10T06:33:55.116Z,90.45
2016-08-10T06:34:54.652Z,90.12
2016-08-10T06:35:54.955Z,87.31
2016-08-10T06:36:55.414Z,89.17
2016-08-10T06:37:55.105Z,88.98
2016-08-10T06:38:54.810Z,88.59
2016-08-10T06:39:54.968Z,88.5
2016-08-10T06:40:55.306Z,89.17
2016-08-10T06:41:56.002Z,89.26
2016-08-10T06:42:54.938Z,89.07
2016-08-10T06:43:55.150Z,89.07
2016-08-10T06:44:55.447Z,90.22
2016-08-10T06:45:55.113Z,89.83
2016-08-10T06:46:54.905Z,88.02
2016-08-10T06:47:55.292Z,89.17
2016-08-10T06:48:55.229Z,88.98
2016-08-10T06:49:55.690Z,88.4
2016-08-10T06:50:55.455Z,88.4
2016-08-10T06:51:54.895Z,88.78
2016-08-10T06:52:56.643Z,89.17
2016-08-10T06:53:56.056Z,89.17
2016-08-10T06:54:55.051Z,87.59
2016-08-10T06:55:55.733Z,87.02
2016-08-10T06:56:55.286Z,86.44
2016-08-10T06:57:54.834Z,87.11
2016-08-10T06:58:55.231Z,86.73
2016-08-10T06:59:55.469Z,86.16
2016-08-10T07:00:55.375Z,85.68
2016-08-10T07:01:54.951Z,85.68
2016-08-10T07:02:55.374Z,85.3
2016-08-10T07:03:55.892Z,85.39
2016-08-10T07:04:55.951Z,86.3
2016-08-10T07:05:55.917Z,86.73
2016-08-10T07:06:55.755Z,84.63
2016-08-10T07:07:56.059Z,85.77
2016-08-10T07:08:55.221Z,87.68
2016-08-10T07:09:55.421Z,88.92
2016-08-10T07:10:56.224Z,88.73
2016-08-10T07:11:55.270Z,86.92
2016-08-10T07:12:55.143Z,87.11
2016-08-10T07:13:55.158Z,87.78
2016-08-10T07:14:56.781Z,85.39
2016-08-10T07:15:55.683Z,86.82
2016-08-10T07:16:55.727Z,86.58
2016-08-10T07:17:55.851Z,83.81
2016-08-10T07:18:55.667Z,83.53
2016-08-10T07:19:56.242Z,84.48
2016-08-10T07:20:56.258Z,84.1
2016-08-10T07:21:56.498Z,84.48
2016-08-10T07:22:55.910Z,83.24
2016-08-10T07:23:56.015Z,83.14
2016-08-10T07:24:55.579Z,84.77
2016-08-10T07:25:56.267Z,82.57
2016-08-10T07:26:56.061Z,82.57
2016-08-10T07:27:55.752Z,82.91
2016-08-10T07:28:55.738Z,83.53
2016-08-10T07:29:56.596Z,84.96
2016-08-10T07:30:55.607Z,83.43
2016-08-10T07:31:55.730Z,83.53
2016-08-10T07:32:56.091Z,83.43
2016-08-10T07:33:57.200Z,82
2016-08-10T07:34:56.214Z,82.57
2016-08-10T07:35:56.712Z,83.14
2016-08-10T07:36:55.725Z,83.34
2016-08-10T07:37:57.446Z,83.57
2016-08-10T07:38:57.077Z,83.18
2016-08-10T07:39:57.117Z,83.18
2016-08-10T07:40:55.988Z,82.18
2016-08-10T07:41:56.375Z,81.99
2016-08-10T07:42:56.450Z,81.95
2016-08-10T07:43:56.079Z,81.22
2016-08-10T07:44:56.195Z,81.09
2016-08-10T07:45:55.971Z,80.8
2016-08-10T07:46:56.583Z,81.24
2016-08-10T07:47:55.954Z,80.28
2016-08-10T07:48:56.729Z,82.38
2016-08-10T07:49:56.515Z,81.24
2016-08-10T07:50:58.078Z,81.14
2016-08-10T07:51:56.735Z,79.71
2016-08-10T07:52:56.519Z,80.22
2016-08-10T07:53:57.030Z,80.61
2016-08-10T07:54:57.275Z,81.04
2016-08-10T07:55:57.545Z,79.65
2016-08-10T07:56:56.427Z,78.51
2016-08-10T07:57:56.726Z,78.41
2016-08-10T07:58:56.458Z,78.31
2016-08-10T07:59:56.487Z,79.23
2016-08-10T08:00:56.873Z,80.19
2016-08-10T08:01:57.306Z,80.22
2016-08-10T08:02:56.358Z,78.45
2016-08-10T08:03:57.062Z,78.36
2016-08-10T08:04:56.913Z,78.51
2016-08-10T08:05:57.043Z,79.17
2016-08-10T08:06:56.894Z,79.27
2016-08-10T08:07:56.907Z,80.32
2016-08-10T08:08:57.558Z,78.07
2016-08-10T08:09:57.561Z,77.69
2016-08-10T08:10:57.288Z,78.16
2016-08-10T08:11:57.259Z,78.45
2016-08-10T08:12:57.023Z,78.07
2016-08-10T08:13:57.225Z,77.78
2016-08-10T08:14:57.172Z,77.4
2016-08-10T08:15:57.108Z,78.03
2016-08-10T08:16:57.957Z,78.55
2016-08-10T08:17:57.194Z,82.09
2016-08-10T08:18:57.600Z,80.38
2016-08-10T08:19:57.109Z,80.9
2016-08-10T08:20:57.176Z,78.03
2016-08-10T08:21:57.206Z,77.65
2016-08-10T08:22:57.663Z,77.97
2016-08-10T08:23:57.499Z,78.36
2016-08-10T08:24:58.126Z,77.01
2016-08-10T08:25:57.399Z,75.34
2016-08-10T08:26:57.648Z,78.16
2016-08-10T08:27:57.985Z,77.44
2016-08-10T08:28:58.085Z,77.21
2016-08-10T08:29:57.451Z,77.3
2016-08-10T08:30:58.909Z,77.4
2016-08-10T08:31:58.132Z,76.06
2016-08-10T08:32:58.181Z,76.79
2016-08-10T08:33:57.389Z,78.47
2016-08-10T08:34:57.495Z,78.09
2016-08-10T08:35:57.308Z,76.69
2016-08-10T08:36:58.044Z,75.79
2016-08-10T08:37:57.780Z,77.45
2016-08-10T08:38:57.781Z,76.12
2016-08-10T08:39:58.474Z,75.35
2016-08-10T08:40:58.954Z,76.12
2016-08-10T08:41:59.006Z,77.42
2016-08-10T08:42:58.501Z,77.08
2016-08-10T08:43:57.646Z,76.6
2016-08-10T08:44:58.164Z,76.27
2016-08-10T08:45:58.000Z,77.13
2016-08-10T08:46:57.866Z,77.42
2016-08-10T08:47:57.964Z,76.21
2016-08-10T08:48:58.314Z,77.55
2016-08-10T08:49:58.119Z,76.88
2016-08-10T08:50:59.129Z,76.03
2016-08-10T08:51:58.337Z,76.6
2016-08-10T08:52:58.950Z,76.6
2016-08-10T08:53:58.426Z,75.64
2016-08-10T08:54:57.845Z,76.84
2016-08-10T08:55:58.099Z,76.18
2016-08-10T08:56:57.642Z,75.6
2016-08-10T08:57:59.198Z,75.7
2016-08-10T08:58:58.939Z,76.27
2016-08-10T08:59:57.983Z,76.56
2016-08-10T09:00:59.195Z,77.13
2016-08-10T09:01:58.927Z,77.7
2016-08-10T09:02:57.971Z,77.51
2016-08-10T09:03:59.584Z,77.61
2016-08-10T09:04:58.140Z,77.32
2016-08-10T09:05:58.821Z,76.65
2016-08-10T09:06:58.293Z,77.61
2016-08-10T09:07:58.392Z,78.47
2016-08-10T09:08:58.020Z,76.65
2016-08-10T09:09:58.673Z,76.94
2016-08-10T09:10:58.944Z,76.84
2016-08-10T09:11:58.206Z,77.32
2016-08-10T09:12:58.151Z,77.03
2016-08-10T09:13:58.892Z,76.79
2016-08-10T09:14:58.137Z,75.74
2016-08-10T09:15:58.494Z,76.5
2016-08-10T09:16:58.620Z,75.45
2016-08-10T09:17:58.592Z,76.6
2016-08-10T09:18:58.428Z,75.16
2016-08-10T09:19:58.733Z,75.45
2016-08-10T09:20:58.851Z,76.16
2016-08-10T09:21:58.914Z,75.39
2016-08-10T09:22:58.590Z,75.54
2016-08-10T09:23:58.742Z,76.37
2016-08-10T09:24:58.914Z,76.94
2016-08-10T09:25:59.172Z,76.37
2016-08-10T09:26:58.597Z,74.4
2016-08-10T09:27:58.546Z,76.21
2016-08-10T09:29:00.161Z,76.12
2016-08-10T09:30:00.315Z,75.74
2016-08-10T09:30:58.672Z,75.98
2016-08-10T09:31:59.716Z,76.18
2016-08-10T09:32:58.484Z,75.22
2016-08-10T09:34:00.440Z,75.32
2016-08-10T09:34:59.013Z,74.59
2016-08-10T09:35:59.942Z,74.21
2016-08-10T09:36:58.854Z,74.21
2016-08-10T09:37:59.199Z,74.02
2016-08-10T09:38:59.611Z,73.83
2016-08-10T09:39:59.859Z,73.48
2016-08-10T09:40:59.886Z,72.81
2016-08-10T09:41:59.219Z,73.1
2016-08-10T09:43:00.408Z,73.96
2016-08-10T09:43:59.938Z,73.1
2016-08-10T09:44:59.763Z,72.53
2016-08-10T09:45:59.666Z,72.97
2016-08-10T09:47:00.068Z,73.29
2016-08-10T09:47:59.479Z,73.1
2016-08-10T09:48:59.822Z,73.1
2016-08-10T09:49:59.930Z,72.62
2016-08-10T09:50:59.691Z,71.19
2016-08-10T09:51:59.144Z,71.09
2016-08-10T09:52:59.623Z,70.42
2016-08-10T09:53:59.735Z,69.76
2016-08-10T09:54:59.735Z,70.52
2016-08-10T09:55:59.294Z,70.71
2016-08-10T09:56:59.637Z,71.25
2016-08-10T09:57:59.695Z,70.96
2016-08-10T09:58:59.977Z,71.34
2016-08-10T09:59:59.222Z,71.15
2016-08-10T10:01:00.339Z,70.2
2016-08-10T10:02:00.873Z,71.06
2016-08-10T10:02:59.905Z,71.53
2016-08-10T10:03:59.559Z,71.25
2016-08-10T10:04:59.932Z,71.44
2016-08-10T10:05:59.893Z,72.01
2016-08-10T10:07:00.046Z,71.25
2016-08-10T10:07:59.519Z,70.87
2016-08-10T10:08:59.773Z,70.77
2016-08-10T10:09:59.881Z,70.01
2016-08-10T10:11:00.971Z,72.01
2016-08-10T10:12:00.329Z,68.13
2016-08-10T10:13:00.624Z,68.8
2016-08-10T10:14:00.016Z,66.92
2016-08-10T10:15:01.974Z,66.83
2016-08-10T10:16:00.057Z,67.14
2016-08-10T10:17:00.707Z,65.08
2016-08-10T10:18:00.076Z,63.76
2016-08-10T10:19:00.050Z,63.64
2016-08-10T10:20:01.154Z,65.36
2016-08-10T10:21:00.026Z,65.08
2016-08-10T10:22:01.320Z,63.45
2016-08-10T10:23:00.035Z,63.8
2016-08-10T10:24:00.372Z,63.86
2016-08-10T10:25:00.428Z,63.51
2016-08-10T10:26:00.626Z,63.45
2016-08-10T10:27:00.257Z,63.16
2016-08-10T10:27:59.940Z,63.42
2016-08-10T10:29:00.559Z,63.89
2016-08-10T10:30:00.088Z,64.09
2016-08-10T10:31:02.053Z,64.79
2016-08-10T10:32:00.448Z,66.47
2016-08-10T10:33:00.147Z,68.68
2016-08-10T10:34:01.005Z,68.84
2016-08-10T10:35:00.592Z,70.52
2016-08-10T10:36:00.356Z,73.07
2016-08-10T10:37:00.469Z,75.35
2016-08-10T10:38:00.305Z,73.35
2016-08-10T10:39:00.896Z,73.63
2016-08-10T10:41:01.175Z,75.45
2016-08-10T10:42:01.214Z,74.02
2016-08-10T10:43:01.069Z,72.87
2016-08-10T10:44:00.984Z,73.03
2016-08-10T10:45:01.837Z,74.37
2016-08-10T10:46:00.407Z,73.5
2016-08-10T10:47:00.755Z,73.98
2016-08-10T10:48:01.410Z,74.52
2016-08-10T10:49:02.303Z,74.46
2016-08-10T10:50:02.410Z,74.8
2016-08-10T10:51:01.147Z,75.09
2016-08-10T10:52:01.365Z,73.85
2016-08-10T10:53:01.232Z,74.65
2016-08-10T10:54:01.993Z,73.73
2016-08-10T10:56:01.256Z,72.2
2016-08-10T10:57:01.115Z,73.25
2016-08-10T10:58:02.109Z,72.68
2016-08-10T10:59:00.822Z,72.24
2016-08-10T11:00:01.819Z,73.48
2016-08-10T11:01:01.054Z,73.43
2016-08-10T11:02:01.627Z,72.5
2016-08-10T11:03:02.472Z,72.88
2016-08-10T11:04:02.082Z,73.36
2016-08-10T11:05:01.267Z,72.28
2016-08-10T11:06:02.776Z,72.28
2016-08-10T11:07:01.746Z,71.51
2016-08-10T11:08:01.041Z,72.28
2016-08-10T11:09:01.093Z,70.07
2016-08-10T11:11:01.689Z,70.94
2016-08-10T11:12:01.459Z,71.99
2016-08-10T11:13:01.992Z,71.99
2016-08-10T11:14:01.672Z,73.33
2016-08-10T11:15:01.696Z,74.09
2016-08-10T11:16:01.837Z,72.75
2016-08-10T11:17:02.036Z,72.37
2016-08-10T11:18:02.635Z,71.51
2016-08-10T11:19:01.989Z,69.6
2016-08-10T11:20:02.290Z,69.56
2016-08-10T11:21:03.007Z,66.44
2016-08-10T11:22:02.026Z,66.06
2016-08-10T11:23:02.362Z,66.19
2016-08-10T11:24:01.668Z,63.26
2016-08-10T11:26:01.425Z,60.1
2016-08-10T11:27:02.401Z,58.25
2016-08-10T11:28:02.815Z,59.11
2016-08-10T11:29:01.823Z,60.38
2016-08-10T11:30:02.350Z,58.79
2016-08-10T11:31:01.746Z,58.69
2016-08-10T11:32:02.498Z,57.54
2016-08-10T11:33:02.318Z,58.37
2016-08-10T11:34:02.915Z,58.98
2016-08-10T11:35:02.992Z,59.2
2016-08-10T11:36:02.087Z,59.08
2016-08-10T11:37:02.198Z,57.57
2016-08-10T11:38:02.786Z,57.67
2016-08-10T11:39:02.058Z,56.9
2016-08-10T11:40:02.371Z,57.26
2016-08-10T11:41:02.623Z,57.57
2016-08-10T11:42:02.757Z,55.87
2016-08-10T11:43:02.624Z,56.16
2016-08-10T11:44:02.470Z,57.12
2016-08-10T11:45:02.021Z,55.78
2016-08-10T11:46:03.478Z,56.23
2016-08-10T11:47:02.277Z,55.58
2016-08-10T11:48:03.195Z,53.36
2016-08-10T11:49:02.811Z,49.46
2016-08-10T11:50:02.171Z,52.09
2016-08-10T11:51:02.028Z,53.55
2016-08-10T11:52:02.954Z,54.67
2016-08-10T11:53:02.244Z,52.28
2016-08-10T11:54:02.464Z,53.4
2016-08-10T11:55:02.266Z,55
2016-08-10T11:56:02.319Z,55.76
2016-08-10T11:57:03.220Z,57.36
2016-08-10T11:58:03.229Z,57.43
2016-08-10T11:59:03.005Z,57.5
2016-08-10T12:00:02.423Z,59.05
2016-08-10T12:01:02.442Z,61.22
2016-08-10T12:02:03.239Z,64.15
2016-08-10T12:03:03.249Z,64.05
2016-08-10T12:04:03.214Z,65.77
2016-08-10T12:05:04.151Z,66.35
2016-08-10T12:06:03.336Z,68.82
2016-08-10T12:07:04.390Z,68.82
2016-08-10T12:08:03.802Z,67.58
2016-08-10T12:09:03.215Z,68.35
2016-08-10T12:10:03.046Z,68.06
2016-08-10T12:11:04.044Z,68.35
2016-08-10T12:12:04.700Z,69.4
2016-08-10T12:13:03.337Z,68.16
2016-08-10T12:14:03.030Z,67.97
2016-08-10T12:15:04.330Z,69.27
2016-08-10T12:16:03.489Z,69.21
2016-08-10T12:17:03.535Z,67.77
2016-08-10T12:18:03.234Z,67.55
2016-08-10T12:19:03.173Z,68.82
2016-08-10T12:20:04.274Z,69.11
2016-08-10T12:21:03.820Z,67.87
2016-08-10T12:22:04.543Z,69.4
2016-08-10T12:23:04.245Z,71.41
2016-08-10T12:24:03.193Z,71.59
2016-08-10T12:25:03.982Z,70.77
2016-08-10T12:26:04.346Z,70.07
2016-08-10T12:27:03.473Z,71.02
2016-08-10T12:28:03.192Z,70.39
2016-08-10T12:29:03.599Z,70.83
2016-08-10T12:30:03.718Z,72.26
2016-08-10T12:31:04.375Z,71.21
2016-08-10T12:32:03.998Z,72.07
2016-08-10T12:33:03.663Z,72.01
2016-08-10T12:34:05.109Z,72.01
2016-08-10T12:35:03.690Z,70.2
2016-08-10T12:36:04.338Z,69.72
2016-08-10T12:37:04.627Z,70.58
2016-08-10T12:38:05.431Z,71.02
2016-08-10T12:39:03.366Z,71.02
2016-08-10T12:40:04.210Z,72.2
2016-08-10T12:41:04.426Z,72.68
2016-08-10T12:42:03.831Z,71.44
2016-08-10T12:43:03.985Z,69.76
2016-08-10T12:44:03.963Z,69.85
2016-08-10T12:45:03.641Z,70.46
2016-08-10T12:46:04.283Z,69.35
2016-08-10T12:47:04.685Z,65.68
2016-08-10T12:48:04.288Z,62.55
2016-08-10T12:49:04.484Z,61.78
2016-08-10T12:50:03.893Z,62.74
2016-08-10T12:51:04.082Z,61.18
2016-08-10T12:52:04.097Z,58.23
2016-08-10T12:53:04.742Z,57.92
2016-08-10T12:54:04.294Z,57.57
2016-08-10T12:55:04.462Z,57.38
2016-08-10T12:56:05.986Z,57.7
2016-08-10T12:57:04.652Z,55.58
2016-08-10T12:58:04.616Z,58.37
2016-08-10T12:59:04.907Z,59.48
2016-08-10T13:00:04.470Z,56.04
2016-08-10T13:01:05.361Z,53.14
2016-08-10T13:02:04.799Z,52.92
2016-08-10T13:03:05.590Z,53.88
2016-08-10T13:04:05.358Z,54.28
2016-08-10T13:05:05.007Z,57.45
2016-08-10T13:06:04.786Z,54.86